createdAt,value
2022-11-27T00:00:07.261Z,-1.39
2022-11-27T00:02:40.959Z,-1.16
2022-11-27T00:05:08.793Z,-1.17
2022-11-27T00:07:36.209Z,-1.08
2022-11-27T00:10:03.711Z,-0.94
2022-11-27T00:12:31.673Z,-1.01
2022-11-27T00:14:59.028Z,-1.20
2022-11-27T00:17:26.422Z,-0.82
2022-11-27T00:19:53.879Z,-0.87
2022-11-27T00:22:21.251Z,-0.85
2022-11-27T00:24:48.624Z,-0.98
2022-11-27T00:27:16.051Z,-1.04
2022-11-27T00:29:44.234Z,-0.89
2022-11-27T00:32:11.877Z,-1.01
2022-11-27T00:34:39.561Z,-0.68
2022-11-27T00:37:07.286Z,-1.53
2022-11-27T00:39:34.779Z,-1.17
2022-11-27T00:42:02.180Z,-1.02
2022-11-27T00:44:29.642Z,-1.27
2022-11-27T00:46:57.122Z,-1.40
2022-11-27T00:49:24.671Z,-1.46
2022-11-27T00:51:52.113Z,-1.40
2022-11-27T00:54:22.659Z,-1.30
2022-11-27T00:56:50.305Z,-1.16
2022-11-27T00:59:17.827Z,-1.25
2022-11-27T01:01:45.327Z,-1.05
2022-11-27T01:04:15.416Z,-1.37
2022-11-27T01:06:44.020Z,-1.26
2022-11-27T01:09:12.870Z,-1.35
2022-11-27T01:11:40.590Z,-1.41
2022-11-27T01:14:13.942Z,-1.61
2022-11-27T01:16:43.359Z,-1.49
2022-11-27T01:19:12.786Z,-1.31
2022-11-27T01:21:40.170Z,-1.48
2022-11-27T01:24:08.011Z,-1.41
2022-11-27T01:26:35.320Z,-1.48
2022-11-27T01:29:02.848Z,-1.10
2022-11-27T01:31:32.278Z,-1.52
2022-11-27T01:34:02.760Z,-1.59
2022-11-27T01:36:30.707Z,-1.62
2022-11-27T01:38:58.565Z,-1.74
2022-11-27T01:41:31.856Z,-1.87
2022-11-27T01:44:23.462Z,-1.79
2022-11-27T01:46:56.683Z,-1.88
2022-11-27T01:49:37.212Z,-1.60
2022-11-27T01:52:12.235Z,-1.54
2022-11-27T01:54:46.782Z,-1.27
2022-11-27T01:57:17.073Z,-1.53
2022-11-27T01:59:45.391Z,-1.34
2022-11-27T02:02:12.878Z,-1.32
2022-11-27T02:04:40.574Z,-1.32
2022-11-27T02:07:08.178Z,-1.30
2022-11-27T02:09:35.632Z,-1.40
2022-11-27T02:12:09.887Z,-1.53
2022-11-27T02:14:37.300Z,-1.37
2022-11-27T02:17:16.909Z,-1.44
2022-11-27T02:19:50.882Z,-1.55
2022-11-27T02:22:43.134Z,-1.81
2022-11-27T02:25:15.117Z,-1.69
2022-11-27T02:28:18.065Z,-1.54
2022-11-27T02:30:52.122Z,-1.67
2022-11-27T02:33:21.352Z,-1.21
2022-11-27T02:36:15.944Z,-1.51
2022-11-27T02:39:06.912Z,-1.30
2022-11-27T02:41:44.732Z,-1.63
2022-11-27T02:44:12.635Z,-1.62
2022-11-27T02:46:41.174Z,-1.47
2022-11-27T02:49:12.059Z,-1.27
2022-11-27T02:51:44.675Z,-1.73
2022-11-27T02:54:15.416Z,-1.44
2022-11-27T02:56:44.121Z,-1.40
2022-11-27T02:59:13.868Z,-1.75
2022-11-27T03:01:49.161Z,-1.62
2022-11-27T03:04:19.612Z,-1.79
2022-11-27T03:06:50.368Z,-1.69
2022-11-27T03:09:34.926Z,-1.85
2022-11-27T03:12:04.247Z,-1.21
2022-11-27T03:14:31.857Z,-1.58
2022-11-27T03:17:25.350Z,-1.64
2022-11-27T03:19:55.453Z,-1.90
2022-11-27T03:22:22.812Z,-2.10
2022-11-27T03:24:50.198Z,-2.02
2022-11-27T03:27:29.676Z,-1.99
2022-11-27T03:29:59.773Z,-2.08
2022-11-27T03:32:28.230Z,-1.90
2022-11-27T03:34:55.740Z,-1.85
2022-11-27T03:37:23.846Z,-1.99
2022-11-27T03:39:51.846Z,-2.23
2022-11-27T03:42:30.639Z,-2.21
2022-11-27T03:45:22.213Z,-2.29
2022-11-27T03:48:05.179Z,-2.19
2022-11-27T03:50:59.558Z,-2.32
2022-11-27T03:53:44.578Z,-2.26
2022-11-27T03:56:40.180Z,-2.37
2022-11-27T03:59:29.747Z,-2.41
2022-11-27T04:01:56.896Z,-2.20
2022-11-27T04:04:24.252Z,-1.89
2022-11-27T04:06:51.314Z,-1.91
2022-11-27T04:09:18.354Z,-1.91
2022-11-27T04:11:45.416Z,-1.87
2022-11-27T04:14:12.435Z,-1.88
2022-11-27T04:16:39.507Z,-1.75
2022-11-27T04:19:06.589Z,-1.86
2022-11-27T04:21:34.031Z,-2.22
2022-11-27T04:24:01.091Z,-2.44
2022-11-27T04:26:28.167Z,-2.38
2022-11-27T04:28:55.315Z,-2.15
2022-11-27T04:31:22.378Z,-2.21
2022-11-27T04:33:49.863Z,-2.39
2022-11-27T04:36:17.310Z,-2.48
2022-11-27T04:38:44.740Z,-2.29
2022-11-27T04:41:12.166Z,-2.24
2022-11-27T04:43:39.595Z,-2.38
2022-11-27T04:46:07.092Z,-2.49
2022-11-27T04:48:34.515Z,-2.54
2022-11-27T04:51:01.992Z,-2.25
2022-11-27T04:53:29.411Z,-2.34
2022-11-27T04:55:56.780Z,-2.68
2022-11-27T04:58:24.212Z,-2.70
2022-11-27T05:00:51.715Z,-2.50
2022-11-27T05:03:19.294Z,-2.68
2022-11-27T05:05:53.805Z,-2.67
2022-11-27T05:08:21.160Z,-2.51
2022-11-27T05:11:08.722Z,-2.69
2022-11-27T05:13:36.114Z,-2.59
2022-11-27T05:16:04.030Z,-2.67
2022-11-27T05:18:31.941Z,-2.67
2022-11-27T05:21:04.875Z,-2.65
2022-11-27T05:23:32.677Z,-2.60
2022-11-27T05:26:00.516Z,-2.64
2022-11-27T05:28:28.027Z,-2.81
2022-11-27T05:30:55.621Z,-2.62
2022-11-27T05:33:23.165Z,-2.34
2022-11-27T05:35:50.575Z,-2.66
2022-11-27T05:38:17.977Z,-2.74
2022-11-27T05:40:45.402Z,-2.92
2022-11-27T05:43:12.769Z,-3.04
2022-11-27T05:45:40.381Z,-3.06
2022-11-27T05:48:07.766Z,-3.02
2022-11-27T05:50:35.128Z,-2.94
2022-11-27T05:53:05.557Z,-3.09
2022-11-27T05:55:32.982Z,-3.11
2022-11-27T05:58:00.468Z,-3.15
2022-11-27T06:00:27.860Z,-2.67
2022-11-27T06:02:56.582Z,-2.91
2022-11-27T06:05:24.358Z,-3.04
2022-11-27T06:07:51.908Z,-3.08
2022-11-27T06:10:19.467Z,-2.96
2022-11-27T06:12:46.941Z,-3.02
2022-11-27T06:15:14.383Z,-2.91
2022-11-27T06:17:41.748Z,-2.83
2022-11-27T06:20:09.535Z,-2.94
2022-11-27T06:22:37.012Z,-2.84
2022-11-27T06:25:04.663Z,-2.61
2022-11-27T06:27:35.829Z,-2.54
2022-11-27T06:30:04.328Z,-2.65
2022-11-27T06:32:31.827Z,-2.49
2022-11-27T06:34:59.225Z,-2.66
2022-11-27T06:37:27.043Z,-2.56
2022-11-27T06:39:54.468Z,-2.84
2022-11-27T06:42:21.912Z,-3.02
2022-11-27T06:44:49.387Z,-3.11
2022-11-27T06:47:16.828Z,-2.97
2022-11-27T06:49:44.230Z,-2.91
2022-11-27T06:52:11.679Z,-3.06
2022-11-27T06:54:39.399Z,-3.01
2022-11-27T06:57:07.039Z,-2.97
2022-11-27T06:59:34.440Z,-2.98
2022-11-27T07:02:01.944Z,-3.05
2022-11-27T07:04:29.395Z,-3.02
2022-11-27T07:06:56.868Z,-2.88
2022-11-27T07:09:24.301Z,-2.74
2022-11-27T07:11:51.758Z,-2.86
2022-11-27T07:14:19.192Z,-2.81
2022-11-27T07:16:46.757Z,-2.73
2022-11-27T07:19:14.808Z,-2.66
2022-11-27T07:21:42.233Z,-2.67
2022-11-27T07:24:09.670Z,-2.65
2022-11-27T07:26:37.178Z,-2.69
2022-11-27T07:29:04.609Z,-2.65
2022-11-27T07:31:32.107Z,-2.49
2022-11-27T07:33:59.375Z,-2.36
2022-11-27T07:36:30.235Z,-2.50
2022-11-27T07:38:58.248Z,-2.37
2022-11-27T07:41:29.348Z,-2.47
2022-11-27T07:43:58.136Z,-2.44
2022-11-27T07:46:25.766Z,-2.09
2022-11-27T07:48:53.234Z,-2.00
2022-11-27T07:51:22.419Z,-1.47
2022-11-27T07:53:53.087Z,-0.96
2022-11-27T07:56:20.928Z,-0.49
2022-11-27T07:58:49.006Z,-0.10
2022-11-27T08:01:18.145Z,0.24
2022-11-27T08:03:46.026Z,0.61
2022-11-27T08:06:17.623Z,0.89
2022-11-27T08:08:45.784Z,1.20
2022-11-27T08:11:18.474Z,1.76
2022-11-27T08:13:45.975Z,1.76
2022-11-27T08:16:13.398Z,1.56
2022-11-27T08:18:40.823Z,1.47
2022-11-27T08:21:08.409Z,1.50
2022-11-27T08:23:35.787Z,0.47
2022-11-27T08:26:09.595Z,0.76
2022-11-27T08:28:37.295Z,0.81
2022-11-27T08:31:06.223Z,0.29
2022-11-27T08:33:34.534Z,0.52
2022-11-27T08:36:02.067Z,0.63
2022-11-27T08:38:29.700Z,0.36
2022-11-27T08:41:02.487Z,0.35
2022-11-27T08:43:30.911Z,0.59
2022-11-27T08:45:59.530Z,1.55
2022-11-27T08:48:27.223Z,2.44
2022-11-27T08:50:54.916Z,3.09
2022-11-27T08:53:22.633Z,3.96
2022-11-27T08:55:50.121Z,3.96
2022-11-27T08:58:17.531Z,4.53
2022-11-27T09:00:44.978Z,5.36
2022-11-27T09:03:12.849Z,6.21
2022-11-27T09:05:44.171Z,6.78
2022-11-27T09:08:16.425Z,7.08
2022-11-27T09:10:43.900Z,7.55
2022-11-27T09:13:11.375Z,7.17
2022-11-27T09:15:38.378Z,6.79
2022-11-27T09:18:05.469Z,7.64
2022-11-27T09:20:32.406Z,7.87
2022-11-27T09:23:02.383Z,8.33
2022-11-27T09:25:29.561Z,9.15
2022-11-27T09:27:56.497Z,9.55
2022-11-27T09:30:23.623Z,10.23
2022-11-27T09:32:50.592Z,10.44
2022-11-27T09:35:17.776Z,10.86
2022-11-27T09:37:44.760Z,10.83
2022-11-27T09:40:16.904Z,11.17
2022-11-27T09:43:05.384Z,11.66
2022-11-27T09:45:33.705Z,12.01
2022-11-27T09:48:05.683Z,12.79
2022-11-27T09:50:40.300Z,12.78
2022-11-27T09:53:39.785Z,13.65
2022-11-27T09:56:13.582Z,13.82
2022-11-27T09:58:42.894Z,13.99
2022-11-27T10:01:15.374Z,14.18
2022-11-27T10:03:43.839Z,14.63
2022-11-27T10:06:24.211Z,15.02
2022-11-27T10:09:02.298Z,13.96
2022-11-27T10:11:47.881Z,14.50
2022-11-27T10:15:03.674Z,14.71
2022-11-27T10:17:41.539Z,15.00
2022-11-27T10:20:37.736Z,13.45
2022-11-27T10:23:09.924Z,13.67
2022-11-27T10:25:52.862Z,13.53
2022-11-27T10:28:29.370Z,14.42
2022-11-27T10:31:03.494Z,14.63
2022-11-27T10:33:43.807Z,15.30
2022-11-27T10:36:34.372Z,14.73
2022-11-27T10:39:02.386Z,12.79
2022-11-27T10:41:53.164Z,11.47
2022-11-27T10:44:26.971Z,11.27
2022-11-27T10:47:03.902Z,10.44
2022-11-27T10:49:31.834Z,10.42
2022-11-27T10:52:00.077Z,10.23
2022-11-27T10:54:32.357Z,10.26
2022-11-27T10:57:18.753Z,10.20
2022-11-27T11:00:02.091Z,11.20
2022-11-27T11:02:34.633Z,10.30
2022-11-27T11:05:37.754Z,11.13
2022-11-27T11:08:19.415Z,11.15
2022-11-27T11:10:58.301Z,10.63
2022-11-27T11:13:48.297Z,10.55
2022-11-27T11:16:24.907Z,10.90
2022-11-27T11:18:54.627Z,10.93
2022-11-27T11:21:34.555Z,10.61
2022-11-27T11:24:24.440Z,10.27
2022-11-27T11:26:59.097Z,9.89
2022-11-27T11:29:52.696Z,10.42
2022-11-27T11:32:35.443Z,10.41
2022-11-27T11:35:11.223Z,10.31
2022-11-27T11:37:46.333Z,10.50
2022-11-27T11:40:16.054Z,10.34
2022-11-27T11:42:58.994Z,10.35
2022-11-27T11:45:32.313Z,10.44
2022-11-27T11:48:22.792Z,10.66
2022-11-27T11:51:01.970Z,10.41
2022-11-27T11:53:40.100Z,10.80
2022-11-27T11:56:34.032Z,10.92
2022-11-27T11:59:04.298Z,10.71
2022-11-27T12:02:18.321Z,11.20
2022-11-27T12:05:11.694Z,11.13
2022-11-27T12:08:07.191Z,11.51
2022-11-27T12:11:11.757Z,11.00
2022-11-27T12:13:59.876Z,10.85
2022-11-27T12:16:39.685Z,10.69
2022-11-27T12:19:09.775Z,10.77
2022-11-27T12:21:45.804Z,10.78
2022-11-27T12:24:27.448Z,11.59
2022-11-27T12:27:06.261Z,11.57
2022-11-27T12:30:11.444Z,12.21
2022-11-27T12:32:58.828Z,11.70
2022-11-27T12:35:44.992Z,11.58
2022-11-27T12:38:43.065Z,11.65
2022-11-27T12:41:31.937Z,11.49
2022-11-27T12:44:02.001Z,11.87
2022-11-27T12:46:37.523Z,11.82
2022-11-27T12:49:19.940Z,11.83
2022-11-27T12:52:09.815Z,11.97
2022-11-27T12:54:55.308Z,11.45
2022-11-27T12:58:03.420Z,11.34
2022-11-27T13:00:32.319Z,10.61
2022-11-27T13:03:25.802Z,11.13
2022-11-27T13:06:00.281Z,11.07
2022-11-27T13:08:53.709Z,11.28
2022-11-27T13:11:28.380Z,11.59
2022-11-27T13:14:10.110Z,11.89
2022-11-27T13:16:45.190Z,11.50
2022-11-27T13:19:51.115Z,11.81
2022-11-27T13:22:34.644Z,11.57
2022-11-27T13:25:03.459Z,11.88
2022-11-27T13:27:34.408Z,11.95
2022-11-27T13:30:06.533Z,11.22
2022-11-27T13:32:57.146Z,10.71
2022-11-27T13:35:41.949Z,10.77
2022-11-27T13:38:08.892Z,10.56
2022-11-27T13:40:49.173Z,10.63
2022-11-27T13:43:28.798Z,10.36
2022-11-27T13:46:31.473Z,10.26
2022-11-27T13:49:05.637Z,10.20
2022-11-27T13:51:38.890Z,10.15
2022-11-27T13:54:14.377Z,9.80
2022-11-27T13:56:41.836Z,9.88
2022-11-27T13:59:17.068Z,9.48
2022-11-27T14:02:03.304Z,9.55
2022-11-27T14:04:32.337Z,9.49
2022-11-27T14:07:13.699Z,9.25
2022-11-27T14:10:23.779Z,9.10
2022-11-27T14:13:07.810Z,8.97
2022-11-27T14:15:37.575Z,8.92
2022-11-27T14:18:18.648Z,8.84
2022-11-27T14:21:01.441Z,8.81
2022-11-27T14:23:49.692Z,8.71
2022-11-27T14:26:16.509Z,8.66
2022-11-27T14:28:48.762Z,8.61
2022-11-27T14:31:35.839Z,8.57
2022-11-27T14:34:20.841Z,8.43
2022-11-27T14:36:52.922Z,8.31
2022-11-27T14:39:30.503Z,8.30
2022-11-27T14:42:17.454Z,8.19
2022-11-27T14:44:44.359Z,8.12
2022-11-27T14:47:20.080Z,8.08
2022-11-27T14:49:47.058Z,8.07
2022-11-27T14:52:17.689Z,7.97
2022-11-27T14:54:45.066Z,7.87
2022-11-27T14:57:23.439Z,7.82
2022-11-27T15:00:10.704Z,7.80
2022-11-27T15:02:37.778Z,7.79
2022-11-27T15:05:06.416Z,7.73
2022-11-27T15:07:45.252Z,7.69
2022-11-27T15:10:37.544Z,7.64
2022-11-27T15:13:07.956Z,7.58
2022-11-27T15:15:44.583Z,7.55
2022-11-27T15:18:24.768Z,7.44
2022-11-27T15:20:52.749Z,7.34
2022-11-27T15:23:32.126Z,7.35
2022-11-27T15:26:02.364Z,7.30
2022-11-27T15:28:52.915Z,7.22
2022-11-27T15:31:35.180Z,7.16
2022-11-27T15:34:22.197Z,7.07
2022-11-27T15:36:58.424Z,7.05
2022-11-27T15:39:51.851Z,7.07
2022-11-27T15:42:19.945Z,7.00
2022-11-27T15:44:49.062Z,7.00
2022-11-27T15:47:33.892Z,6.97
2022-11-27T15:50:01.322Z,6.95
2022-11-27T15:52:28.820Z,6.90
2022-11-27T15:54:56.561Z,6.81
2022-11-27T15:57:24.359Z,6.88
2022-11-27T15:59:51.303Z,6.83
2022-11-27T16:02:18.653Z,6.74
2022-11-27T16:04:45.647Z,6.67
2022-11-27T16:07:12.771Z,6.56
2022-11-27T16:09:40.065Z,6.57
2022-11-27T16:12:07.236Z,6.62
2022-11-27T16:14:34.279Z,6.61
2022-11-27T16:17:01.388Z,6.69
2022-11-27T16:19:29.980Z,6.64
2022-11-27T16:21:56.962Z,6.54
2022-11-27T16:24:23.957Z,6.62
2022-11-27T16:26:50.939Z,6.57
2022-11-27T16:29:18.296Z,6.47
2022-11-27T16:31:45.405Z,6.48
2022-11-27T16:34:15.511Z,6.42
2022-11-27T16:36:45.676Z,6.35
2022-11-27T16:39:17.405Z,6.37
2022-11-27T16:41:44.635Z,6.21
2022-11-27T16:44:14.530Z,6.22
2022-11-27T16:46:44.558Z,6.18
2022-11-27T16:49:12.344Z,6.10
2022-11-27T16:51:41.270Z,6.03
2022-11-27T16:54:13.306Z,5.97
2022-11-27T16:56:42.523Z,5.93
2022-11-27T16:59:12.369Z,5.91
2022-11-27T17:01:41.586Z,5.85
2022-11-27T17:04:15.356Z,5.76
2022-11-27T17:06:42.265Z,5.70
2022-11-27T17:09:09.350Z,5.65
2022-11-27T17:11:39.522Z,5.56
2022-11-27T17:14:08.131Z,5.53
2022-11-27T17:16:36.904Z,5.44
2022-11-27T17:19:04.486Z,5.42
2022-11-27T17:21:34.961Z,5.39
2022-11-27T17:24:11.552Z,5.38
2022-11-27T17:26:44.243Z,5.38
2022-11-27T17:29:14.018Z,5.37
2022-11-27T17:31:41.446Z,5.41
2022-11-27T17:34:11.090Z,5.36
2022-11-27T17:36:38.903Z,5.34
2022-11-27T17:39:06.930Z,5.29
2022-11-27T17:41:34.726Z,5.34
2022-11-27T17:44:05.382Z,5.26
2022-11-27T17:46:34.326Z,5.33
2022-11-27T17:49:04.948Z,5.35
2022-11-27T17:51:34.586Z,5.34
2022-11-27T17:54:03.140Z,5.23
2022-11-27T17:56:32.816Z,5.19
2022-11-27T17:58:59.953Z,5.13
2022-11-27T18:01:29.574Z,5.13
2022-11-27T18:04:03.575Z,5.13
2022-11-27T18:06:32.340Z,5.15
2022-11-27T18:09:00.034Z,5.13
2022-11-27T18:11:31.429Z,5.16
2022-11-27T18:14:00.233Z,5.18
2022-11-27T18:16:35.693Z,5.11
2022-11-27T18:19:06.448Z,5.15
2022-11-27T18:21:33.941Z,5.33
2022-11-27T18:29:39.326Z,5.56
2022-11-27T18:32:07.132Z,5.37
2022-11-27T18:34:34.539Z,5.29
2022-11-27T18:37:01.737Z,5.28
2022-11-27T18:39:28.823Z,5.12
2022-11-27T18:41:55.748Z,5.24
2022-11-27T18:44:22.981Z,5.17
2022-11-27T18:46:50.613Z,5.09
2022-11-27T18:49:18.257Z,5.12
2022-11-27T18:51:46.735Z,5.12
2022-11-27T18:54:13.708Z,4.88
2022-11-27T18:56:40.643Z,4.94
2022-11-27T18:59:09.162Z,4.99
2022-11-27T19:01:42.237Z,4.98
2022-11-27T19:04:11.148Z,4.82
2022-11-27T19:06:39.797Z,4.82
2022-11-27T19:09:07.253Z,4.86
2022-11-27T19:11:35.304Z,4.96
2022-11-27T19:14:04.042Z,5.07
2022-11-27T19:16:43.907Z,5.07
2022-11-27T19:19:52.174Z,5.02
2022-11-27T19:22:01.678Z,4.85
2022-11-27T19:24:28.801Z,4.70
2022-11-27T19:26:57.720Z,4.72
2022-11-27T19:29:24.757Z,5.00
2022-11-27T19:31:52.192Z,5.07
2022-11-27T19:34:20.712Z,4.78
2022-11-27T19:36:47.812Z,4.85
2022-11-27T19:39:15.911Z,4.77
2022-11-27T19:41:43.930Z,4.74
2022-11-27T19:44:12.863Z,4.75
2022-11-27T19:46:41.012Z,4.69
2022-11-27T19:49:13.657Z,4.76
2022-11-27T19:51:41.277Z,5.00
2022-11-27T19:54:12.560Z,4.91
2022-11-27T19:56:42.182Z,4.80
2022-11-27T19:59:12.315Z,4.97
2022-11-27T20:01:41.828Z,4.99
2022-11-27T20:04:11.780Z,5.00
2022-11-27T20:06:39.742Z,4.92
2022-11-27T20:09:08.630Z,4.66
2022-11-27T20:11:36.523Z,4.62
2022-11-27T20:14:06.352Z,4.67
2022-11-27T20:16:35.702Z,4.59
2022-11-27T20:19:05.754Z,4.66
2022-11-27T20:21:36.533Z,4.81
2022-11-27T20:24:04.060Z,4.76
2022-11-27T20:26:31.524Z,5.09
2022-11-27T20:28:59.863Z,5.13
2022-11-27T20:31:31.784Z,5.06
2022-11-27T20:34:02.448Z,5.12
2022-11-27T20:36:34.331Z,5.05
2022-11-27T20:39:02.072Z,4.95
2022-11-27T20:41:30.049Z,5.05
2022-11-27T20:44:01.087Z,5.17
2022-11-27T20:46:29.490Z,5.29
2022-11-27T20:48:57.259Z,5.17
2022-11-27T20:51:28.501Z,5.10
2022-11-27T20:53:58.604Z,4.69
2022-11-27T20:56:26.268Z,4.40
2022-11-27T20:58:53.366Z,4.50
2022-11-27T21:01:29.834Z,4.68
2022-11-27T21:04:00.166Z,4.62
2022-11-27T21:06:31.599Z,4.52
2022-11-27T21:09:04.402Z,4.74
2022-11-27T21:11:32.950Z,4.88
2022-11-27T21:14:06.260Z,4.98
2022-11-27T21:16:38.294Z,5.10
2022-11-27T21:19:14.968Z,4.87
2022-11-27T21:21:42.088Z,4.60
2022-11-27T21:24:09.832Z,4.40
2022-11-27T21:26:36.898Z,4.56
2022-11-27T21:29:04.466Z,4.62
2022-11-27T21:31:37.329Z,4.56
2022-11-27T21:34:07.499Z,4.41
2022-11-27T21:36:37.235Z,4.38
2022-11-27T21:39:08.244Z,4.39
2022-11-27T21:41:35.950Z,4.40
2022-11-27T21:44:05.752Z,4.28
2022-11-27T21:46:33.625Z,4.20
2022-11-27T21:49:04.037Z,4.26
2022-11-27T21:51:31.138Z,4.43
2022-11-27T21:53:59.275Z,4.64
2022-11-27T21:56:29.016Z,4.53
2022-11-27T21:58:56.554Z,4.57
2022-11-27T22:01:25.710Z,4.70
2022-11-27T22:03:56.625Z,4.72
2022-11-27T22:06:27.569Z,4.82
2022-11-27T22:08:58.045Z,4.72
2022-11-27T22:11:28.742Z,4.59
2022-11-27T22:14:05.853Z,4.65
2022-11-27T22:16:42.793Z,5.02
2022-11-27T22:19:11.966Z,5.11
2022-11-27T22:21:38.942Z,4.79
2022-11-27T22:24:06.376Z,4.55
2022-11-27T22:26:33.831Z,4.55
2022-11-27T22:29:00.822Z,4.44
2022-11-27T22:31:31.247Z,4.31
2022-11-27T22:33:59.134Z,4.24
2022-11-27T22:36:34.873Z,4.10
2022-11-27T22:39:06.028Z,4.17
2022-11-27T22:41:37.047Z,4.22
2022-11-27T22:44:09.446Z,4.28
2022-11-27T22:46:40.125Z,4.27
2022-11-27T22:49:09.547Z,4.29
2022-11-27T22:51:37.282Z,4.42
2022-11-27T22:54:06.948Z,4.56
2022-11-27T22:56:34.014Z,4.69
2022-11-27T22:59:30.459Z,4.80
2022-11-27T23:01:49.584Z,4.80
2022-11-27T23:04:17.499Z,4.88
2022-11-27T23:06:47.908Z,4.97
2022-11-27T23:09:17.789Z,4.70
2022-11-27T23:11:45.341Z,4.62
2022-11-27T23:14:12.260Z,4.59
2022-11-27T23:16:39.507Z,4.57
2022-11-27T23:19:06.955Z,4.44
2022-11-27T23:21:37.472Z,4.43
2022-11-27T23:24:06.785Z,4.56
2022-11-27T23:26:33.839Z,4.74
2022-11-27T23:29:00.776Z,4.78
2022-11-27T23:31:32.572Z,4.87
2022-11-27T23:34:02.107Z,4.89
2022-11-27T23:36:31.338Z,4.66
2022-11-27T23:39:03.536Z,4.67
2022-11-27T23:41:31.535Z,4.37
2022-11-27T23:43:58.935Z,4.33
2022-11-27T23:46:27.933Z,4.58
2022-11-27T23:48:57.085Z,4.62
2022-11-27T23:51:27.788Z,4.55
2022-11-27T23:53:55.112Z,4.65
2022-11-27T23:56:25.304Z,4.71
2022-11-27T23:58:54.985Z,4.84
